createdAt,value
2022-09-12T15:00:06.762Z,24.37
2022-09-12T15:01:07.748Z,24.38
2022-09-12T15:02:07.669Z,24.38
2022-09-12T15:03:07.685Z,24.37
2022-09-12T15:04:07.855Z,24.35
2022-09-12T15:05:07.764Z,24.35
2022-09-12T15:06:07.637Z,24.37
2022-09-12T15:07:08.963Z,24.38
2022-09-12T15:08:07.641Z,24.41
2022-09-12T15:09:07.604Z,24.41
2022-09-12T15:10:07.562Z,24.39
2022-09-12T15:11:08.695Z,24.38
2022-09-12T15:12:07.527Z,24.34
2022-09-12T15:13:07.566Z,24.34
2022-09-12T15:14:07.599Z,24.35
2022-09-12T15:15:07.531Z,24.32
2022-09-12T15:16:07.662Z,24.35
2022-09-12T15:17:07.529Z,24.31
2022-09-12T15:18:07.521Z,24.32
2022-09-12T15:19:07.522Z,24.27
2022-09-12T15:20:07.512Z,24.23
2022-09-12T15:21:07.471Z,24.17
2022-09-12T15:22:07.505Z,24.14
2022-09-12T15:23:08.025Z,24.08
2022-09-12T15:24:07.674Z,24.04
2022-09-12T15:25:09.256Z,24.02
2022-09-12T15:26:07.917Z,24.02
2022-09-12T15:27:07.986Z,24.00
2022-09-12T15:28:07.462Z,23.97
2022-09-12T15:29:07.402Z,23.97
2022-09-12T15:30:07.521Z,23.95
2022-09-12T15:31:07.534Z,23.95
2022-09-12T15:32:07.468Z,23.95
2022-09-12T15:33:07.404Z,23.94
2022-09-12T15:34:07.561Z,23.92
2022-09-12T15:35:07.278Z,23.90
2022-09-12T15:36:07.389Z,23.90
2022-09-12T15:37:07.397Z,23.89
2022-09-12T15:38:07.421Z,23.87
2022-09-12T15:39:07.354Z,23.85
2022-09-12T15:40:07.488Z,23.86
2022-09-12T15:41:07.362Z,23.86
2022-09-12T15:42:07.324Z,23.82
2022-09-12T15:43:07.628Z,23.82
2022-09-12T15:44:07.392Z,23.83
2022-09-12T15:45:07.268Z,23.82
2022-09-12T15:46:07.442Z,23.82
2022-09-12T15:47:07.266Z,23.82
2022-09-12T15:48:07.274Z,23.80
2022-09-12T15:49:07.259Z,23.77
2022-09-12T15:50:07.313Z,23.75
2022-09-12T15:51:07.196Z,23.70
2022-09-12T15:52:07.228Z,23.68
2022-09-12T15:53:07.239Z,23.67
2022-09-12T15:54:07.234Z,23.61
2022-09-12T15:55:07.146Z,23.55
2022-09-12T15:56:07.193Z,23.53
2022-09-12T15:57:07.227Z,23.50
2022-09-12T15:58:07.585Z,23.49
2022-09-12T15:59:07.137Z,23.46
2022-09-12T16:00:07.165Z,23.43
2022-09-12T16:01:07.122Z,23.39
2022-09-12T16:02:07.227Z,23.34
2022-09-12T16:03:07.176Z,23.32
2022-09-12T16:04:07.076Z,23.31
2022-09-12T16:05:07.115Z,23.26
2022-09-12T16:06:07.108Z,23.24
2022-09-12T16:07:07.025Z,23.17
2022-09-12T16:08:07.066Z,23.17
2022-09-12T16:09:07.042Z,23.15
2022-09-12T16:10:07.122Z,23.14
2022-09-12T16:11:07.047Z,23.11
2022-09-12T16:12:06.988Z,23.08
2022-09-12T16:13:06.996Z,23.05
2022-09-12T16:14:07.071Z,23.01
2022-09-12T16:15:06.990Z,22.97
2022-09-12T16:16:07.019Z,22.96
2022-09-12T16:17:07.020Z,22.93
2022-09-12T16:18:06.945Z,22.89
2022-09-12T16:19:06.921Z,22.87
2022-09-12T16:20:06.960Z,22.82
2022-09-12T16:21:09.079Z,22.78
2022-09-12T16:22:06.922Z,22.75
2022-09-12T16:23:06.835Z,22.71
2022-09-12T16:24:06.883Z,22.68
2022-09-12T16:25:06.923Z,22.64
2022-09-12T16:26:06.907Z,22.60
2022-09-12T16:27:06.835Z,22.57
2022-09-12T16:28:07.031Z,22.54
2022-09-12T16:29:06.874Z,22.52
2022-09-12T16:30:06.880Z,22.47
2022-09-12T16:31:06.913Z,22.44
2022-09-12T16:32:06.922Z,22.43
2022-09-12T16:33:06.830Z,22.39
2022-09-12T16:34:06.826Z,22.37
2022-09-12T16:35:06.795Z,22.34
2022-09-12T16:36:06.758Z,22.34
2022-09-12T16:37:06.752Z,22.34
2022-09-12T16:38:06.795Z,22.31
2022-09-12T16:39:06.750Z,22.32
2022-09-12T16:40:06.770Z,22.32
2022-09-12T16:41:06.713Z,22.32
2022-09-12T16:42:06.710Z,22.34
2022-09-12T16:43:06.679Z,22.35
2022-09-12T16:44:06.718Z,22.34
2022-09-12T16:45:06.682Z,22.31
2022-09-12T16:46:06.770Z,22.31
2022-09-12T16:47:06.754Z,22.28
2022-09-12T16:48:06.669Z,22.29
2022-09-12T16:49:06.642Z,22.27
2022-09-12T16:50:06.659Z,22.25
2022-09-12T16:51:06.659Z,22.22
2022-09-12T16:52:06.594Z,22.19
2022-09-12T16:53:06.600Z,22.16
2022-09-12T16:54:06.634Z,22.12
2022-09-12T16:55:06.649Z,22.10
2022-09-12T16:56:06.629Z,22.06
2022-09-12T16:57:06.546Z,21.99
2022-09-12T16:58:06.591Z,21.95
2022-09-12T16:59:06.589Z,21.90
2022-09-12T17:00:06.564Z,21.83
2022-09-12T17:01:06.516Z,21.79
2022-09-12T17:02:06.673Z,21.76
2022-09-12T17:03:06.549Z,21.75
2022-09-12T17:04:06.509Z,21.71
2022-09-12T17:05:06.475Z,21.64
2022-09-12T17:06:06.512Z,21.60
2022-09-12T17:07:06.474Z,21.56
2022-09-12T17:08:06.477Z,21.53
2022-09-12T17:09:06.470Z,21.48
2022-09-12T17:10:06.434Z,21.44
2022-09-12T17:11:06.429Z,21.36
2022-09-12T17:12:06.345Z,21.32
2022-09-12T17:13:06.386Z,21.27
2022-09-12T17:14:07.300Z,21.23
2022-09-12T17:15:06.394Z,21.17
2022-09-12T17:16:06.584Z,21.13
2022-09-12T17:17:06.312Z,21.09
2022-09-12T17:18:06.403Z,21.02
2022-09-12T17:19:06.377Z,20.99
2022-09-12T17:20:06.459Z,20.95
2022-09-12T17:21:06.306Z,20.91
2022-09-12T17:22:06.349Z,20.86
2022-09-12T17:23:09.611Z,20.83
2022-09-12T17:24:06.312Z,20.79
2022-09-12T17:25:06.267Z,20.72
2022-09-12T17:26:06.383Z,20.68
2022-09-12T17:27:06.279Z,20.64
2022-09-12T17:28:06.315Z,20.58
2022-09-12T17:29:06.232Z,20.53
2022-09-12T17:30:06.269Z,20.47
2022-09-12T17:31:06.289Z,20.42
2022-09-12T17:32:06.586Z,20.38
2022-09-12T17:33:06.245Z,20.30
2022-09-12T17:34:06.186Z,20.25
2022-09-12T17:35:06.198Z,20.20
2022-09-12T17:36:06.166Z,20.13
2022-09-12T17:37:06.302Z,20.10
2022-09-12T17:38:06.159Z,20.03
2022-09-12T17:39:06.341Z,20.02
2022-09-12T17:40:06.401Z,19.97
2022-09-12T17:41:06.264Z,19.91
2022-09-12T17:42:06.056Z,19.88
2022-09-12T17:43:06.140Z,19.84
2022-09-12T17:44:06.414Z,19.76
2022-09-12T17:45:06.106Z,19.70
2022-09-12T17:46:06.336Z,19.68
2022-09-12T17:47:06.047Z,19.65
2022-09-12T17:48:06.134Z,19.60
2022-09-12T17:49:06.185Z,19.55
2022-09-12T17:50:30.305Z,19.51
2022-09-12T17:51:05.990Z,19.47
2022-09-12T17:52:06.064Z,19.39
2022-09-12T17:53:06.110Z,19.36
2022-09-12T17:54:06.057Z,19.33
2022-09-12T17:55:06.071Z,19.25
2022-09-12T17:56:06.209Z,19.21
2022-09-12T17:57:05.906Z,19.17
2022-09-12T17:58:05.978Z,19.13
2022-09-12T17:59:06.067Z,19.06
2022-09-12T18:00:05.906Z,19.01
2022-09-12T18:01:06.018Z,18.97
2022-09-12T18:02:06.206Z,18.94
2022-09-12T18:03:06.075Z,18.90
2022-09-12T18:04:05.995Z,18.86
2022-09-12T18:05:05.957Z,18.82
2022-09-12T18:06:05.867Z,18.79
2022-09-12T18:07:05.909Z,18.74
2022-09-12T18:08:06.093Z,18.72
2022-09-12T18:09:06.001Z,18.68
2022-09-12T18:10:05.913Z,18.62
2022-09-12T18:11:05.983Z,18.61
2022-09-12T18:12:05.828Z,18.57
2022-09-12T18:13:05.782Z,18.55
2022-09-12T18:14:05.898Z,18.50
2022-09-12T18:15:05.897Z,18.46
2022-09-12T18:16:05.967Z,18.44
2022-09-12T18:17:05.770Z,18.42
2022-09-12T18:18:05.897Z,18.39
2022-09-12T18:19:05.932Z,18.34
2022-09-12T18:20:05.752Z,18.31
2022-09-12T18:21:05.670Z,18.28
2022-09-12T18:22:05.666Z,18.24
2022-09-12T18:23:05.664Z,18.21
2022-09-12T18:24:06.430Z,18.17
2022-09-12T18:25:05.618Z,18.13
2022-09-12T18:26:05.663Z,18.10
2022-09-12T18:27:05.666Z,18.07
2022-09-12T18:28:09.061Z,18.06
2022-09-12T18:29:05.657Z,18.04
2022-09-12T18:30:20.450Z,18.02
2022-09-12T18:31:05.657Z,17.99
2022-09-12T18:32:05.628Z,17.97
2022-09-12T18:33:05.650Z,17.95
2022-09-12T18:34:05.540Z,17.92
2022-09-12T18:35:05.693Z,17.91
2022-09-12T18:36:05.544Z,17.88
2022-09-12T18:37:05.501Z,17.85
2022-09-12T18:38:06.153Z,17.84
2022-09-12T18:39:05.577Z,17.82
2022-09-12T18:40:05.735Z,17.81
2022-09-12T18:41:05.504Z,17.79
2022-09-12T18:42:05.690Z,17.76
2022-09-12T18:43:05.469Z,17.74
2022-09-12T18:44:05.495Z,17.73
2022-09-12T18:45:05.424Z,17.71
2022-09-12T18:46:05.741Z,17.67
2022-09-12T18:47:05.428Z,17.63
2022-09-12T18:48:05.452Z,17.62
2022-09-12T18:49:05.426Z,17.59
2022-09-12T18:50:05.459Z,17.55
2022-09-12T18:51:05.585Z,17.55
2022-09-12T18:52:05.424Z,17.54
2022-09-12T18:53:05.356Z,17.53
2022-09-12T18:54:05.581Z,17.51
2022-09-12T18:55:05.572Z,17.51
2022-09-12T18:56:05.446Z,17.50
2022-09-12T18:57:05.338Z,17.50
2022-09-12T18:58:05.298Z,17.50
2022-09-12T18:59:05.351Z,17.48
2022-09-12T19:00:08.272Z,17.48
2022-09-12T19:01:05.362Z,17.47
2022-09-12T19:02:05.360Z,17.46
2022-09-12T19:03:05.477Z,17.47
2022-09-12T19:04:05.611Z,17.48
2022-09-12T19:05:05.257Z,17.47
2022-09-12T19:06:05.231Z,17.46
2022-09-12T19:07:05.274Z,17.46
2022-09-12T19:08:05.323Z,17.46
2022-09-12T19:09:07.864Z,17.47
2022-09-12T19:10:05.199Z,17.46
2022-09-12T19:11:05.183Z,17.47
2022-09-12T19:12:05.283Z,17.46
2022-09-12T19:13:05.178Z,17.46
2022-09-12T19:14:05.218Z,17.47
2022-09-12T19:15:05.129Z,17.48
2022-09-12T19:16:05.261Z,17.47
2022-09-12T19:17:05.343Z,17.50
2022-09-12T19:18:05.286Z,17.48
2022-09-12T19:19:05.254Z,17.47
2022-09-12T19:20:05.240Z,17.47
2022-09-12T19:21:05.088Z,17.47
2022-09-12T19:22:05.249Z,17.46
2022-09-12T19:23:05.118Z,17.46
2022-09-12T19:24:05.098Z,17.47
2022-09-12T19:25:05.049Z,17.47
2022-09-12T19:26:05.102Z,17.46
2022-09-12T19:27:05.044Z,17.46
2022-09-12T19:28:05.122Z,17.47
2022-09-12T19:29:05.016Z,17.47
2022-09-12T19:30:05.010Z,17.47
2022-09-12T19:31:05.115Z,17.47
2022-09-12T19:32:05.016Z,17.47
2022-09-12T19:33:04.969Z,17.46
2022-09-12T19:34:04.975Z,17.46
2022-09-12T19:35:04.977Z,17.44
2022-09-12T19:36:04.971Z,17.43
2022-09-12T19:37:04.937Z,17.41
2022-09-12T19:38:04.925Z,17.38
2022-09-12T19:39:04.922Z,17.36
2022-09-12T19:40:05.050Z,17.36
2022-09-12T19:41:04.903Z,17.35
2022-09-12T19:42:04.887Z,17.33
2022-09-12T19:43:04.884Z,17.33
2022-09-12T19:44:04.998Z,17.32
2022-09-12T19:45:05.014Z,17.30
2022-09-12T19:46:04.886Z,17.30
2022-09-12T19:47:04.856Z,17.30
2022-09-12T19:48:04.842Z,17.29
2022-09-12T19:49:04.801Z,17.28
2022-09-12T19:50:04.836Z,17.28
2022-09-12T19:51:04.968Z,17.28
2022-09-12T19:52:04.804Z,17.25
2022-09-12T19:53:04.780Z,17.26
2022-09-12T19:54:04.814Z,17.25
2022-09-12T19:55:04.855Z,17.23
2022-09-12T19:56:04.922Z,17.25
2022-09-12T19:57:04.765Z,17.22
2022-09-12T19:58:04.808Z,17.20
2022-09-12T19:59:04.729Z,17.18
2022-09-12T20:00:04.794Z,17.17
2022-09-12T20:01:04.772Z,17.14
2022-09-12T20:02:04.901Z,17.11
2022-09-12T20:03:04.691Z,17.10
2022-09-12T20:04:04.698Z,17.07
2022-09-12T20:05:04.690Z,17.04
2022-09-12T20:06:04.658Z,17.03
2022-09-12T20:07:04.642Z,16.99
2022-09-12T20:08:04.689Z,16.98
2022-09-12T20:09:04.600Z,16.95
2022-09-12T20:10:04.857Z,16.95
2022-09-12T20:11:04.623Z,16.92
2022-09-12T20:12:04.856Z,16.90
2022-09-12T20:13:04.577Z,16.88
2022-09-12T20:14:04.611Z,16.86
2022-09-12T20:15:04.555Z,16.86
2022-09-12T20:16:04.912Z,16.85
2022-09-12T20:17:05.073Z,16.80
2022-09-12T20:18:04.666Z,16.78
2022-09-12T20:19:04.617Z,16.77
2022-09-12T20:20:04.544Z,16.75
2022-09-12T20:21:04.512Z,16.74
2022-09-12T20:22:04.562Z,16.73
2022-09-12T20:23:04.672Z,16.70
2022-09-12T20:24:04.471Z,16.67
2022-09-12T20:25:04.468Z,16.68
2022-09-12T20:26:04.514Z,16.65
2022-09-12T20:27:04.411Z,16.62
2022-09-12T20:28:04.471Z,16.60
2022-09-12T20:29:04.434Z,16.62
2022-09-12T20:30:04.405Z,16.59
2022-09-12T20:31:04.613Z,16.60
2022-09-12T20:32:04.391Z,16.59
2022-09-12T20:33:04.726Z,16.60
2022-09-12T20:34:04.370Z,16.59
2022-09-12T20:35:04.354Z,16.59
2022-09-12T20:36:04.358Z,16.59
2022-09-12T20:37:04.356Z,16.59
2022-09-12T20:38:04.535Z,16.59
2022-09-12T20:39:04.315Z,16.59
2022-09-12T20:40:04.340Z,16.59
2022-09-12T20:41:04.311Z,16.58
2022-09-12T20:42:04.336Z,16.59
2022-09-12T20:43:04.267Z,16.59
2022-09-12T20:44:04.303Z,16.59
2022-09-12T20:45:04.658Z,16.56
2022-09-12T20:46:04.288Z,16.55
2022-09-12T20:47:04.265Z,16.58
2022-09-12T20:48:04.207Z,16.60
2022-09-12T20:49:04.227Z,16.67
2022-09-12T20:50:04.399Z,16.70
2022-09-12T20:51:04.213Z,16.71
2022-09-12T20:52:04.174Z,16.74
2022-09-12T20:53:04.366Z,16.74
2022-09-12T20:54:04.169Z,16.74
2022-09-12T20:55:04.176Z,16.75
2022-09-12T20:56:04.367Z,16.77
2022-09-12T20:57:04.161Z,16.78
2022-09-12T20:58:04.134Z,16.81
2022-09-12T20:59:04.145Z,16.81
2022-09-12T21:00:04.127Z,16.85
2022-09-12T21:01:04.167Z,16.88
2022-09-12T21:02:04.278Z,16.90
2022-09-12T21:03:04.135Z,16.95
2022-09-12T21:04:04.087Z,17.03
2022-09-12T21:05:04.046Z,17.07
2022-09-12T21:06:04.006Z,17.08
2022-09-12T21:07:04.021Z,17.11
2022-09-12T21:08:04.277Z,17.13
2022-09-12T21:09:04.268Z,17.15
2022-09-12T21:10:04.148Z,17.15
2022-09-12T21:11:04.010Z,17.18
2022-09-12T21:12:04.029Z,17.20
2022-09-12T21:13:04.031Z,17.20
2022-09-12T21:14:03.993Z,17.25
2022-09-12T21:15:03.923Z,17.26
2022-09-12T21:16:04.019Z,17.29
2022-09-12T21:17:03.937Z,17.40
2022-09-12T21:18:03.960Z,17.48
2022-09-12T21:19:04.101Z,17.55
2022-09-12T21:20:06.907Z,17.64
2022-09-12T21:21:04.090Z,17.66
2022-09-12T21:22:04.396Z,17.67
2022-09-12T21:23:03.928Z,17.67
2022-09-12T21:24:03.831Z,17.67
2022-09-12T21:25:03.839Z,17.67
2022-09-12T21:26:03.897Z,17.69
2022-09-12T21:27:04.686Z,17.66
2022-09-12T21:28:03.830Z,17.64
2022-09-12T21:29:03.836Z,17.64
2022-09-12T21:30:03.832Z,17.64
2022-09-12T21:31:03.804Z,17.63
2022-09-12T21:32:03.836Z,17.64
2022-09-12T21:33:03.787Z,17.66
2022-09-12T21:34:03.797Z,17.64
2022-09-12T21:35:03.714Z,17.64
2022-09-12T21:36:03.768Z,17.67
2022-09-12T21:37:03.743Z,17.70
2022-09-12T21:38:03.794Z,17.71
2022-09-12T21:39:03.704Z,17.70
2022-09-12T21:40:03.790Z,17.67
2022-09-12T21:41:03.712Z,17.66
2022-09-12T21:42:03.684Z,17.66
2022-09-12T21:43:03.676Z,17.66
2022-09-12T21:44:03.994Z,17.64
2022-09-12T21:45:03.721Z,17.66
2022-09-12T21:46:03.775Z,17.70
2022-09-12T21:47:03.680Z,17.70
2022-09-12T21:48:03.625Z,17.74
2022-09-12T21:49:03.636Z,17.78
2022-09-12T21:50:03.704Z,17.81
2022-09-12T21:51:03.594Z,17.84
2022-09-12T21:52:03.630Z,17.89
2022-09-12T21:53:03.621Z,17.92
2022-09-12T21:54:03.551Z,17.95
2022-09-12T21:55:03.510Z,17.99
2022-09-12T21:56:03.613Z,18.02
2022-09-12T21:57:03.604Z,18.09
2022-09-12T21:58:03.532Z,18.10
2022-09-12T21:59:04.103Z,18.15
2022-09-12T22:00:03.489Z,18.13
2022-09-12T22:01:03.665Z,18.10
2022-09-12T22:02:03.617Z,18.10
2022-09-12T22:03:03.487Z,18.07
2022-09-12T22:04:03.587Z,18.04
2022-09-12T22:05:03.502Z,18.02
2022-09-12T22:06:03.497Z,17.99
2022-09-12T22:07:03.445Z,17.97
2022-09-12T22:08:03.464Z,17.92
2022-09-12T22:09:03.412Z,17.89
2022-09-12T22:10:03.440Z,17.89
2022-09-12T22:11:03.448Z,17.87
2022-09-12T22:12:03.463Z,17.88
2022-09-12T22:13:03.451Z,17.92
2022-09-12T22:14:03.719Z,17.97
2022-09-12T22:15:17.416Z,18.00
2022-09-12T22:16:03.824Z,18.04
2022-09-12T22:17:03.351Z,18.06
2022-09-12T22:18:03.345Z,18.09
2022-09-12T22:19:03.314Z,18.09
2022-09-12T22:20:03.527Z,18.07
2022-09-12T22:21:03.505Z,18.04
2022-09-12T22:22:03.301Z,18.00
2022-09-12T22:23:03.346Z,17.99
2022-09-12T22:24:03.459Z,17.95
2022-09-12T22:25:03.276Z,17.91
2022-09-12T22:26:03.244Z,17.89
2022-09-12T22:27:03.244Z,17.88
2022-09-12T22:28:03.340Z,17.84
2022-09-12T22:29:03.285Z,17.82
2022-09-12T22:30:03.208Z,17.79
2022-09-12T22:31:03.272Z,17.78
2022-09-12T22:32:03.462Z,17.74
2022-09-12T22:33:03.186Z,17.71
2022-09-12T22:34:03.186Z,17.70
2022-09-12T22:35:03.283Z,17.69
2022-09-12T22:36:03.124Z,17.70
2022-09-12T22:37:03.143Z,17.70
2022-09-12T22:38:03.601Z,17.71
2022-09-12T22:39:03.110Z,17.69
2022-09-12T22:40:03.291Z,17.69
2022-09-12T22:41:03.123Z,17.69
2022-09-12T22:42:03.113Z,17.71
2022-09-12T22:43:03.391Z,17.71
2022-09-12T22:44:03.311Z,17.71
2022-09-12T22:45:03.236Z,17.71
2022-09-12T22:46:03.119Z,17.71
2022-09-12T22:47:03.051Z,17.71
2022-09-12T22:48:06.143Z,17.71
2022-09-12T22:49:03.042Z,17.71
2022-09-12T22:50:03.040Z,17.73
2022-09-12T22:51:02.981Z,17.73
2022-09-12T22:52:02.998Z,17.71
2022-09-12T22:53:03.209Z,17.70
2022-09-12T22:54:03.389Z,17.70
2022-09-12T22:55:03.099Z,17.70
2022-09-12T22:56:02.982Z,17.70
2022-09-12T22:57:02.908Z,17.70
2022-09-12T22:58:03.118Z,17.70
2022-09-12T22:59:02.925Z,17.70
2022-09-12T23:00:02.876Z,17.73
2022-09-12T23:01:02.980Z,17.74
2022-09-12T23:02:02.921Z,17.74
2022-09-12T23:03:03.023Z,17.76
2022-09-12T23:04:02.922Z,17.76
2022-09-12T23:05:02.838Z,17.76
2022-09-12T23:06:02.951Z,17.78
2022-09-12T23:07:02.862Z,17.78
2022-09-12T23:08:02.935Z,17.78
2022-09-12T23:09:02.894Z,17.76
2022-09-12T23:10:02.769Z,17.76
2022-09-12T23:11:02.910Z,17.76
2022-09-12T23:12:02.794Z,17.81
2022-09-12T23:13:02.899Z,17.81
2022-09-12T23:14:02.819Z,17.84
2022-09-12T23:15:02.837Z,17.84
2022-09-12T23:16:02.812Z,17.85
2022-09-12T23:17:02.713Z,17.85
2022-09-12T23:18:05.029Z,17.87
2022-09-12T23:19:02.900Z,17.85
2022-09-12T23:20:02.752Z,17.82
2022-09-12T23:21:02.918Z,17.82
2022-09-12T23:22:02.725Z,17.82
2022-09-12T23:23:02.818Z,17.81
2022-09-12T23:24:02.699Z,17.82
2022-09-12T23:25:02.690Z,17.84
2022-09-12T23:26:02.663Z,17.85
2022-09-12T23:27:02.637Z,17.87
2022-09-12T23:28:02.626Z,17.88
2022-09-12T23:29:02.905Z,17.88
2022-09-12T23:30:02.621Z,17.88
2022-09-12T23:31:02.693Z,17.88
2022-09-12T23:32:02.964Z,17.87
2022-09-12T23:33:02.577Z,17.87
2022-09-12T23:34:02.736Z,17.88
2022-09-12T23:35:02.728Z,17.88
2022-09-12T23:36:02.739Z,17.91
2022-09-12T23:37:02.534Z,17.89
2022-09-12T23:38:02.611Z,17.91
2022-09-12T23:39:02.687Z,17.91
2022-09-12T23:40:02.609Z,17.92
2022-09-12T23:41:02.525Z,17.92
2022-09-12T23:42:02.595Z,17.94
2022-09-12T23:43:02.922Z,17.94
2022-09-12T23:44:02.494Z,17.94
2022-09-12T23:45:02.469Z,17.97
2022-09-12T23:46:02.528Z,17.97
2022-09-12T23:47:02.622Z,17.95
2022-09-12T23:48:02.423Z,17.97
2022-09-12T23:49:02.627Z,17.99
2022-09-12T23:50:03.346Z,17.99
2022-09-12T23:51:02.405Z,17.99
2022-09-12T23:52:02.382Z,17.99
2022-09-12T23:53:02.413Z,18.02
2022-09-12T23:54:02.472Z,18.03
2022-09-12T23:55:02.381Z,18.03
2022-09-12T23:56:02.361Z,18.03
2022-09-12T23:57:02.383Z,18.06
2022-09-12T23:58:02.449Z,18.04
2022-09-12T23:59:02.281Z,18.06
